Time;durP1;ratioP1;P1;durP2;ratioP2;P2;SDS_P1;SDS_P2;PMS_P1;PMS_P2;Temp;Humidity;BMP_temperature;BMP_pressure;BME280_temperature;BME280_humidity;BME280_pressure;Samples;Min_cycle;Max_cycle;Signal;HPM_P1;HPM_P2
2023/04/14 00:00:41;;;;;;;;;;;5.50;99.90;;;;;;5047629;28;20020;-41
2023/04/14 00:03:07;;;;;;;;;;;5.50;99.90;;;;;;5053708;28;19935;-40
2023/04/14 00:05:34;;;;;;;;;;;5.40;99.90;;;;;;5052447;28;20029;-40
2023/04/14 00:08:02;;;;;;;;;;;5.40;99.90;;;;;;5043333;28;19986;-42
2023/04/14 00:10:28;;;;;;;;;;;5.40;99.90;;;;;;5055539;28;19990;-39
2023/04/14 00:12:55;;;;;;;;;;;5.30;99.90;;;;;;5043182;28;19941;-41
2023/04/14 00:15:22;;;;;;;;;;;5.30;99.90;;;;;;5046664;28;19985;-41
2023/04/14 00:17:48;;;;;;;;;;;5.30;99.90;;;;;;5042665;28;19960;-42
2023/04/14 00:20:15;;;;;;;;;;;5.20;99.90;;;;;;5036402;28;20034;-39
2023/04/14 00:22:41;;;;;;;;;;;5.20;99.90;;;;;;5053132;28;20388;-41
2023/04/14 00:25:10;;;;;;;;;;;5.10;99.90;;;;;;5045514;28;20038;-42
2023/04/14 00:27:36;;;;;;;;;;;5.10;99.90;;;;;;5048463;28;20357;-47
2023/04/14 00:30:04;;;;;;;;;;;5.10;99.90;;;;;;5036786;28;20048;-42
2023/04/14 00:32:30;;;;;;;;;;;5.10;99.90;;;;;;5048534;28;19948;-44
2023/04/14 00:34:58;;;;;;;;;;;5.00;99.90;;;;;;5052998;28;19924;-40
2023/04/14 00:37:25;;;;;;;;;;;5.00;99.90;;;;;;5037480;28;19925;-41
2023/04/14 00:39:52;;;;;;;;;;;5.00;99.90;;;;;;5053511;28;20386;-41
2023/04/14 00:42:20;;;;;;;;;;;4.90;99.90;;;;;;5052728;28;20416;-40
2023/04/14 00:44:47;;;;;;;;;;;4.90;99.90;;;;;;5051947;28;20024;-45
2023/04/14 00:47:15;;;;;;;;;;;4.90;99.90;;;;;;5055307;28;20339;-41
2023/04/14 00:49:41;;;;;;;;;;;4.90;99.90;;;;;;5052929;28;20423;-42
2023/04/14 00:52:08;;;;;;;;;;;4.80;99.90;;;;;;5050465;28;20436;-42
2023/04/14 00:54:35;;;;;;;;;;;4.80;99.90;;;;;;5053362;28;19971;-39
2023/04/14 00:57:01;;;;;;;;;;;4.70;99.90;;;;;;5050249;28;19946;-40
2023/04/14 00:59:29;;;;;;;;;;;4.70;99.90;;;;;;5058965;28;20414;-40
2023/04/14 01:01:56;;;;;;;;;;;4.70;99.90;;;;;;5048560;28;20005;-41
2023/04/14 01:04:23;;;;;;;;;;;4.70;99.90;;;;;;5051095;28;19976;-45
2023/04/14 01:06:49;;;;;;;;;;;4.60;99.90;;;;;;5037962;28;20004;-41
2023/04/14 01:09:16;;;;;;;;;;;4.60;99.90;;;;;;5036686;28;20294;-42
2023/04/14 01:11:45;;;;;;;;;;;4.60;99.90;;;;;;5038083;28;19934;-41
2023/04/14 01:14:18;;;;;;;;;;;4.50;99.90;;;;;;5052965;28;19936;-41
2023/04/14 01:16:48;;;;;;;;;;;4.50;99.90;;;;;;5044330;28;20029;-41
2023/04/14 01:19:18;;;;;;;;;;;4.50;99.90;;;;;;5049757;28;20388;-40
2023/04/14 01:21:46;;;;;;;;;;;4.50;99.90;;;;;;5040065;28;19959;-42
2023/04/14 01:24:20;;;;;;;;;;;4.50;99.90;;;;;;5051526;28;20121;-41
2023/04/14 01:26:47;;;;;;;;;;;4.50;99.90;;;;;;5062887;28;20420;-40
2023/04/14 01:29:21;;;;;;;;;;;4.50;99.90;;;;;;5065142;28;20021;-41
2023/04/14 01:31:50;;;;;;;;;;;4.40;99.90;;;;;;5051290;28;20021;-40
2023/04/14 01:34:19;;;;;;;;;;;4.50;99.90;;;;;;5050425;28;20150;-43
2023/04/14 01:36:48;;;;;;;;;;;4.40;99.90;;;;;;5048003;28;19974;-40
2023/04/14 01:39:16;;;;;;;;;;;4.40;99.90;;;;;;5034567;28;19991;-40
2023/04/14 01:41:43;;;;;;;;;;;4.40;99.90;;;;;;5044939;28;19954;-42
2023/04/14 01:44:10;;;;;;;;;;;4.30;99.90;;;;;;5062714;28;20377;-41
2023/04/14 01:46:36;;;;;;;;;;;4.30;99.90;;;;;;5051328;28;19992;-43
2023/04/14 01:49:05;;;;;;;;;;;4.30;99.90;;;;;;5055949;28;19984;-41
2023/04/14 01:51:32;;;;;;;;;;;4.30;99.90;;;;;;5033920;28;19943;-41
2023/04/14 01:53:58;;;;;;;;;;;4.30;99.90;;;;;;5052643;28;20445;-43
2023/04/14 01:56:25;;;;;;;;;;;4.30;99.90;;;;;;5054716;28;20042;-43
2023/04/14 01:58:53;;;;;;;;;;;4.40;99.90;;;;;;5050744;28;20016;-42
2023/04/14 02:01:19;;;;;;;;;;;4.30;99.90;;;;;;5038887;28;19953;-42
2023/04/14 02:03:46;;;;;;;;;;;4.30;99.90;;;;;;5038783;28;20028;-42
2023/04/14 02:06:14;;;;;;;;;;;4.30;99.90;;;;;;5038626;28;20080;-40
2023/04/14 02:08:41;;;;;;;;;;;4.30;99.90;;;;;;5058006;28;20506;-46
2023/04/14 02:11:08;;;;;;;;;;;4.30;99.90;;;;;;5051245;28;19933;-41
2023/04/14 02:13:35;;;;;;;;;;;4.20;99.90;;;;;;5056630;28;19984;-42
2023/04/14 02:16:01;;;;;;;;;;;4.20;99.90;;;;;;5039265;28;19972;-43
2023/04/14 02:18:28;;;;;;;;;;;4.20;99.90;;;;;;5049814;28;19921;-40
2023/04/14 02:20:55;;;;;;;;;;;4.20;99.90;;;;;;5049274;28;19920;-46
2023/04/14 02:23:23;;;;;;;;;;;4.20;99.90;;;;;;5047354;28;20337;-41
2023/04/14 02:25:52;;;;;;;;;;;4.20;99.90;;;;;;5052802;28;20024;-43
2023/04/14 02:28:19;;;;;;;;;;;4.20;99.90;;;;;;5047477;28;20023;-44
2023/04/14 02:30:46;;;;;;;;;;;4.20;99.90;;;;;;5052573;28;19998;-43
2023/04/14 02:33:14;;;;;;;;;;;4.20;99.90;;;;;;5057877;28;20031;-42
2023/04/14 02:35:42;;;;;;;;;;;4.20;99.90;;;;;;5052853;28;19944;-41
2023/04/14 02:38:10;;;;;;;;;;;4.20;99.90;;;;;;5055467;28;20008;-41
2023/04/14 02:40:40;;;;;;;;;;;4.20;99.90;;;;;;5046088;28;19949;-44
2023/04/14 02:43:07;;;;;;;;;;;4.20;99.90;;;;;;5044863;28;20427;-45
2023/04/14 02:45:34;;;;;;;;;;;4.20;99.90;;;;;;5053372;28;19978;-43
2023/04/14 02:48:01;;;;;;;;;;;4.30;99.90;;;;;;5054187;28;19937;-43
2023/04/14 02:50:28;;;;;;;;;;;4.30;99.90;;;;;;5054554;28;19987;-42
2023/04/14 02:52:54;;;;;;;;;;;4.30;99.90;;;;;;5054064;28;20009;-49
2023/04/14 02:55:21;;;;;;;;;;;4.30;99.90;;;;;;5055664;28;19987;-41
2023/04/14 02:57:50;;;;;;;;;;;4.30;99.90;;;;;;5059173;28;19979;-43
2023/04/14 03:00:17;;;;;;;;;;;4.30;99.90;;;;;;5048643;28;20398;-42
2023/04/14 03:02:44;;;;;;;;;;;4.30;99.90;;;;;;5035610;28;19921;-43
2023/04/14 03:05:10;;;;;;;;;;;4.30;99.90;;;;;;5052259;28;19941;-43
2023/04/14 03:07:37;;;;;;;;;;;4.30;99.90;;;;;;5037463;28;20407;-44
2023/04/14 03:10:04;;;;;;;;;;;4.30;99.90;;;;;;5063327;28;20355;-44
2023/04/14 03:12:31;;;;;;;;;;;4.20;99.90;;;;;;5036739;28;20399;-42
2023/04/14 03:14:59;;;;;;;;;;;4.20;99.90;;;;;;5035664;28;20040;-43
2023/04/14 03:17:26;;;;;;;;;;;4.20;99.90;;;;;;5049772;28;20283;-43
2023/04/14 03:19:52;;;;;;;;;;;4.20;99.90;;;;;;5042724;28;19980;-44
2023/04/14 03:22:19;;;;;;;;;;;4.20;99.90;;;;;;5052714;28;20007;-45
2023/04/14 03:24:46;;;;;;;;;;;4.20;99.90;;;;;;5039972;28;19941;-43
2023/04/14 03:27:13;;;;;;;;;;;4.10;99.90;;;;;;5038815;28;19933;-41
2023/04/14 03:29:41;;;;;;;;;;;4.10;99.90;;;;;;5053813;28;19933;-47
2023/04/14 03:32:09;;;;;;;;;;;4.10;99.90;;;;;;5053060;28;19976;-43
2023/04/14 03:34:37;;;;;;;;;;;4.20;99.90;;;;;;5059698;28;19985;-46
2023/04/14 03:37:04;;;;;;;;;;;4.10;99.90;;;;;;5053596;28;19939;-43
2023/04/14 03:39:33;;;;;;;;;;;4.00;99.90;;;;;;5047733;28;19940;-42
2023/04/14 03:42:00;;;;;;;;;;;4.10;99.90;;;;;;5058855;28;19954;-45
2023/04/14 03:44:30;;;;;;;;;;;4.00;99.90;;;;;;5054081;28;19940;-42
2023/04/14 03:46:59;;;;;;;;;;;4.00;99.90;;;;;;5068144;28;19938;-40
2023/04/14 03:49:27;;;;;;;;;;;4.00;99.90;;;;;;5034635;28;20036;-40
2023/04/14 03:51:54;;;;;;;;;;;4.00;99.90;;;;;;5046558;28;20324;-44
2023/04/14 03:54:21;;;;;;;;;;;4.00;99.90;;;;;;5053464;28;19967;-44
2023/04/14 03:56:48;;;;;;;;;;;3.90;99.90;;;;;;5051567;28;20307;-44
2023/04/14 03:59:15;;;;;;;;;;;4.00;99.90;;;;;;5045557;28;20028;-44
2023/04/14 04:01:42;;;;;;;;;;;4.00;99.90;;;;;;5048175;28;20435;-44
2023/04/14 04:04:08;;;;;;;;;;;4.00;99.90;;;;;;5037453;28;20024;-43
2023/04/14 04:06:39;;;;;;;;;;;3.90;99.90;;;;;;5037845;28;19938;-43
2023/04/14 04:09:05;;;;;;;;;;;4.00;99.90;;;;;;5048358;28;20381;-43
2023/04/14 04:11:32;;;;;;;;;;;4.00;99.90;;;;;;5050682;28;20027;-43
2023/04/14 04:13:58;;;;;;;;;;;3.90;99.90;;;;;;5054098;28;20031;-46
2023/04/14 04:16:30;;;;;;;;;;;4.00;99.90;;;;;;5047894;28;19998;-44
2023/04/14 04:18:57;;;;;;;;;;;3.90;99.90;;;;;;5038732;28;19934;-43
2023/04/14 04:21:23;;;;;;;;;;;4.00;99.90;;;;;;5045470;28;20007;-43
2023/04/14 04:23:53;;;;;;;;;;;4.00;99.90;;;;;;5050313;28;19995;-42
2023/04/14 04:26:19;;;;;;;;;;;4.00;99.90;;;;;;5049206;28;19980;-42
2023/04/14 04:28:46;;;;;;;;;;;4.00;99.90;;;;;;5046124;28;19942;-47
2023/04/14 04:31:13;;;;;;;;;;;4.00;99.90;;;;;;5046671;28;19942;-42
2023/04/14 04:33:40;;;;;;;;;;;4.00;99.90;;;;;;5061501;28;19972;-43
2023/04/14 04:36:07;;;;;;;;;;;4.00;99.90;;;;;;5056080;28;19943;-45
2023/04/14 04:38:33;;;;;;;;;;;4.00;99.90;;;;;;5050036;28;19980;-44
2023/04/14 04:41:01;;;;;;;;;;;4.00;99.90;;;;;;5045946;28;20014;-47
2023/04/14 04:43:28;;;;;;;;;;;4.00;99.90;;;;;;5046972;28;20021;-46
2023/04/14 04:46:11;;;;;;;;;;;4.00;99.90;;;;;;5061037;28;20007;-47
2023/04/14 04:48:38;;;;;;;;;;;4.00;99.90;;;;;;5057987;28;19937;-43
2023/04/14 04:51:04;;;;;;;;;;;4.00;99.90;;;;;;5050999;28;19986;-46
2023/04/14 04:53:31;;;;;;;;;;;4.00;99.90;;;;;;5050480;28;19974;-42
2023/04/14 04:55:58;;;;;;;;;;;4.00;99.90;;;;;;5050923;28;20031;-43
2023/04/14 04:58:26;;;;;;;;;;;4.00;99.90;;;;;;5052991;28;19975;-43
2023/04/14 05:00:53;;;;;;;;;;;4.00;99.90;;;;;;5045536;28;19981;-44
2023/04/14 05:03:20;;;;;;;;;;;4.00;99.90;;;;;;5059618;28;19931;-45
2023/04/14 05:05:46;;;;;;;;;;;4.00;99.90;;;;;;5038908;28;19933;-45
2023/04/14 05:08:13;;;;;;;;;;;4.00;99.90;;;;;;5051309;28;20012;-42
2023/04/14 05:10:39;;;;;;;;;;;4.00;99.90;;;;;;5050317;28;19989;-43
2023/04/14 05:13:06;;;;;;;;;;;4.00;99.90;;;;;;5051822;28;19931;-43
2023/04/14 05:15:34;;;;;;;;;;;4.10;99.90;;;;;;5055643;28;20040;-43
2023/04/14 05:18:01;;;;;;;;;;;4.10;99.90;;;;;;5047073;28;20040;-42
2023/04/14 05:20:28;;;;;;;;;;;4.10;99.90;;;;;;5041138;28;20387;-45
2023/04/14 05:22:55;;;;;;;;;;;4.10;99.90;;;;;;5051455;28;20077;-45
2023/04/14 05:25:21;;;;;;;;;;;4.20;99.90;;;;;;5045720;28;20364;-43
2023/04/14 05:27:48;;;;;;;;;;;4.30;99.90;;;;;;5050211;28;19948;-43
2023/04/14 05:30:15;;;;;;;;;;;4.30;99.90;;;;;;5040834;28;20017;-44
2023/04/14 05:32:43;;;;;;;;;;;4.30;99.90;;;;;;5049595;28;19985;-45
2023/04/14 05:35:09;;;;;;;;;;;4.40;99.90;;;;;;5048836;28;20029;-43
2023/04/14 05:37:36;;;;;;;;;;;4.40;99.90;;;;;;5043974;28;19970;-47
2023/04/14 05:40:03;;;;;;;;;;;4.50;99.90;;;;;;5048902;28;20435;-45
2023/04/14 05:42:29;;;;;;;;;;;4.60;99.90;;;;;;5053388;28;20035;-45
2023/04/14 05:44:56;;;;;;;;;;;4.70;99.90;;;;;;5045201;28;20021;-44
2023/04/14 05:47:23;;;;;;;;;;;4.80;99.90;;;;;;5048862;28;20604;-45
2023/04/14 05:49:51;;;;;;;;;;;4.90;99.90;;;;;;5045906;28;19934;-45
2023/04/14 05:52:17;;;;;;;;;;;4.90;99.90;;;;;;5045753;28;20007;-44
2023/04/14 05:54:44;;;;;;;;;;;5.10;99.90;;;;;;5038260;28;19943;-42
2023/04/14 05:57:10;;;;;;;;;;;5.20;99.90;;;;;;5042804;28;19937;-42
2023/04/14 05:59:37;;;;;;;;;;;5.30;99.90;;;;;;5037167;28;19984;-41
2023/04/14 06:02:05;;;;;;;;;;;5.40;99.90;;;;;;5035751;28;20039;-42
2023/04/14 06:04:32;;;;;;;;;;;5.50;99.90;;;;;;5043244;28;19976;-39
2023/04/14 06:07:01;;;;;;;;;;;5.60;99.90;;;;;;5053321;28;19921;-42
2023/04/14 06:09:28;;;;;;;;;;;5.70;99.90;;;;;;5036079;28;19949;-40
2023/04/14 06:11:54;;;;;;;;;;;5.80;99.90;;;;;;5048880;28;20028;-43
2023/04/14 06:14:21;;;;;;;;;;;5.90;99.90;;;;;;5044027;28;19941;-46
2023/04/14 06:16:49;;;;;;;;;;;6.00;99.90;;;;;;5047362;28;20657;-44
2023/04/14 06:19:17;;;;;;;;;;;6.20;99.90;;;;;;5047769;28;19973;-42
2023/04/14 06:21:44;;;;;;;;;;;6.20;99.90;;;;;;5048831;28;19963;-39
2023/04/14 06:24:12;;;;;;;;;;;6.40;99.90;;;;;;5050198;28;20015;-41
2023/04/14 06:26:38;;;;;;;;;;;6.50;99.90;;;;;;5047019;28;20029;-44
2023/04/14 06:29:06;;;;;;;;;;;6.60;99.90;;;;;;5048019;28;20298;-40
2023/04/14 06:31:33;;;;;;;;;;;6.60;99.90;;;;;;5045881;28;19937;-41
2023/04/14 06:33:59;;;;;;;;;;;6.70;99.90;;;;;;5049515;28;19984;-40
2023/04/14 06:36:26;;;;;;;;;;;6.90;99.90;;;;;;5042268;28;19941;-42
2023/04/14 06:38:52;;;;;;;;;;;6.90;99.90;;;;;;5041613;28;19948;-39
2023/04/14 06:41:20;;;;;;;;;;;7.10;99.90;;;;;;5039533;28;20357;-40
2023/04/14 06:43:47;;;;;;;;;;;7.20;99.90;;;;;;5045530;28;19992;-39
2023/04/14 06:46:14;;;;;;;;;;;7.30;99.90;;;;;;5051220;28;19983;-41
2023/04/14 06:48:40;;;;;;;;;;;7.40;99.90;;;;;;5048154;28;19976;-44
2023/04/14 06:51:09;;;;;;;;;;;7.50;99.90;;;;;;5044673;28;20413;-42
2023/04/14 06:53:36;;;;;;;;;;;7.50;99.90;;;;;;5047880;28;19937;-39
2023/04/14 06:56:02;;;;;;;;;;;7.60;99.90;;;;;;5032551;28;19942;-42
2023/04/14 06:58:30;;;;;;;;;;;7.80;99.90;;;;;;5060696;28;19978;-43
2023/04/14 07:00:57;;;;;;;;;;;7.80;99.90;;;;;;5042180;28;20020;-39
2023/04/14 07:03:23;;;;;;;;;;;8.10;99.90;;;;;;5059893;28;20436;-39
2023/04/14 07:05:50;;;;;;;;;;;8.10;99.90;;;;;;5047655;28;20020;-39
2023/04/14 07:08:17;;;;;;;;;;;8.20;99.90;;;;;;5041874;28;20034;-40
2023/04/14 07:10:44;;;;;;;;;;;8.30;99.90;;;;;;5042269;28;20268;-39
2023/04/14 07:13:10;;;;;;;;;;;8.40;99.90;;;;;;5047863;28;20035;-39
2023/04/14 07:15:38;;;;;;;;;;;8.50;99.90;;;;;;5049014;28;20371;-39
2023/04/14 07:18:05;;;;;;;;;;;8.60;99.90;;;;;;5052191;28;19962;-38
2023/04/14 07:20:32;;;;;;;;;;;8.70;99.90;;;;;;5052422;28;19989;-39
2023/04/14 07:22:59;;;;;;;;;;;8.90;99.90;;;;;;5050354;28;19952;-39
2023/04/14 07:25:26;;;;;;;;;;;9.00;99.90;;;;;;5060655;28;20020;-39
2023/04/14 07:27:52;;;;;;;;;;;9.10;99.90;;;;;;5046293;28;19940;-40
2023/04/14 07:30:19;;;;;;;;;;;9.30;99.90;;;;;;5036373;28;20354;-41
2023/04/14 07:32:47;;;;;;;;;;;9.40;99.90;;;;;;5045778;28;19968;-40
2023/04/14 07:35:14;;;;;;;;;;;9.50;99.90;;;;;;5042309;28;19989;-40
2023/04/14 07:37:41;;;;;;;;;;;9.50;99.90;;;;;;5045310;28;19937;-41
2023/04/14 07:40:08;;;;;;;;;;;9.60;99.90;;;;;;5048633;28;19931;-40
2023/04/14 07:42:35;;;;;;;;;;;9.70;99.90;;;;;;5049922;28;19999;-40
2023/04/14 07:45:02;;;;;;;;;;;9.80;99.90;;;;;;5052637;28;20277;-40
2023/04/14 07:47:29;;;;;;;;;;;9.90;99.90;;;;;;5050402;28;19946;-40
2023/04/14 07:49:57;;;;;;;;;;;10.00;99.90;;;;;;5052387;28;20363;-40
2023/04/14 07:52:23;;;;;;;;;;;10.00;99.90;;;;;;5052322;28;19948;-40
2023/04/14 07:54:50;;;;;;;;;;;10.20;99.90;;;;;;5053363;28;19980;-40
2023/04/14 07:57:17;;;;;;;;;;;10.30;99.90;;;;;;5051462;28;20002;-40
2023/04/14 07:59:43;;;;;;;;;;;10.50;99.90;;;;;;5055763;28;20024;-40
2023/04/14 08:02:10;;;;;;;;;;;10.70;99.90;;;;;;5072666;28;20063;-40
2023/04/14 08:04:36;;;;;;;;;;;10.80;99.90;;;;;;5072871;28;20078;-40
2023/04/14 08:07:04;;;;;;;;;;;11.00;99.90;;;;;;5054119;28;20241;-41
2023/04/14 08:09:31;;;;;;;;;;;11.10;99.90;;;;;;5051639;28;20303;-42
2023/04/14 08:11:57;;;;;;;;;;;11.20;99.90;;;;;;5055158;28;19942;-40
2023/04/14 08:14:24;;;;;;;;;;;11.30;99.90;;;;;;5062064;28;20387;-40
2023/04/14 08:16:51;;;;;;;;;;;11.40;99.90;;;;;;5051282;28;20304;-40
2023/04/14 08:19:17;;;;;;;;;;;11.60;99.90;;;;;;5055344;28;20458;-40
2023/04/14 08:21:44;;;;;;;;;;;11.70;99.90;;;;;;5058491;28;20029;-40
2023/04/14 08:24:13;;;;;;;;;;;11.80;99.90;;;;;;5051092;28;19953;-39
2023/04/14 08:26:39;;;;;;;;;;;11.90;99.90;;;;;;5061684;28;19941;-39
2023/04/14 08:29:06;;;;;;;;;;;12.00;99.90;;;;;;5072583;28;19933;-39
2023/04/14 08:31:33;;;;;;;;;;;12.10;99.90;;;;;;5062665;28;20396;-39
2023/04/14 08:34:00;;;;;;;;;;;12.30;99.90;;;;;;5039783;28;19935;-38
2023/04/14 08:36:27;;;;;;;;;;;12.30;99.90;;;;;;5050732;28;19959;-39
2023/04/14 08:38:53;;;;;;;;;;;12.50;99.90;;;;;;5054031;28;20384;-38
2023/04/14 08:41:21;;;;;;;;;;;12.60;99.90;;;;;;5072411;28;19979;-39
2023/04/14 08:43:48;;;;;;;;;;;12.70;99.90;;;;;;5060309;28;20010;-40
2023/04/14 08:46:15;;;;;;;;;;;12.80;99.90;;;;;;5052169;28;20018;-39
2023/04/14 08:48:41;;;;;;;;;;;12.90;99.90;;;;;;5051075;28;19937;-39
2023/04/14 08:51:10;;;;;;;;;;;13.10;99.90;;;;;;5050647;28;19976;-39
2023/04/14 08:53:41;;;;;;;;;;;13.00;99.90;;;;;;5050327;28;19933;-39
2023/04/14 08:56:08;;;;;;;;;;;13.00;99.90;;;;;;5050118;28;19958;-40
2023/04/14 08:58:36;;;;;;;;;;;13.00;99.90;;;;;;5050649;28;19935;-39
2023/04/14 09:01:03;;;;;;;;;;;13.10;99.90;;;;;;5049398;28;19936;-39
2023/04/14 09:03:29;;;;;;;;;;;13.20;99.90;;;;;;5050905;28;20019;-40
2023/04/14 09:05:56;;;;;;;;;;;13.30;99.90;;;;;;5052214;28;20404;-40
2023/04/14 09:08:23;;;;;;;;;;;13.40;99.90;;;;;;5066945;28;19990;-40
2023/04/14 09:10:50;;;;;;;;;;;13.60;99.90;;;;;;5066456;28;20018;-40
2023/04/14 09:13:16;;;;;;;;;;;13.70;99.70;;;;;;5051874;28;20017;-40
2023/04/14 09:15:44;;;;;;;;;;;13.70;99.90;;;;;;5050546;28;19934;-38
2023/04/14 09:18:11;;;;;;;;;;;13.80;99.20;;;;;;5051360;28;19959;-38
2023/04/14 09:20:38;;;;;;;;;;;13.90;97.40;;;;;;5049682;28;20019;-38
2023/04/14 09:23:04;;;;;;;;;;;14.10;99.70;;;;;;5050868;28;20049;-39
2023/04/14 09:25:32;;;;;;;;;;;14.20;99.60;;;;;;5050152;28;20018;-38
2023/04/14 09:27:59;;;;;;;;;;;14.30;98.30;;;;;;5049336;28;20026;-38
2023/04/14 09:30:26;;;;;;;;;;;14.40;96.20;;;;;;5050037;28;20458;-40
2023/04/14 09:32:55;;;;;;;;;;;14.50;96.10;;;;;;5047835;28;19972;-39
2023/04/14 09:35:21;;;;;;;;;;;14.50;97.20;;;;;;5053020;28;19942;-39
2023/04/14 09:37:48;;;;;;;;;;;14.60;96.00;;;;;;5046096;28;19989;-39
2023/04/14 09:40:26;;;;;;;;;;;14.70;94.70;;;;;;5038989;28;20406;-39
2023/04/14 09:42:53;;;;;;;;;;;14.70;95.80;;;;;;5060660;28;19950;-38
2023/04/14 09:45:20;;;;;;;;;;;14.80;94.40;;;;;;5044989;28;19942;-38
2023/04/14 09:47:46;;;;;;;;;;;14.90;96.70;;;;;;5041268;28;19941;-38
2023/04/14 09:50:14;;;;;;;;;;;15.10;94.10;;;;;;5046926;28;20053;-39
2023/04/14 09:52:42;;;;;;;;;;;15.30;94.10;;;;;;5035409;28;19983;-39
2023/04/14 09:55:09;;;;;;;;;;;15.30;93.20;;;;;;5045391;28;20034;-38
2023/04/14 09:57:37;;;;;;;;;;;15.40;93.60;;;;;;5048068;28;20022;-39
2023/04/14 10:00:05;;;;;;;;;;;15.40;91.10;;;;;;5045916;28;20639;-39
2023/04/14 10:02:39;;;;;;;;;;;15.40;91.80;;;;;;5060648;28;20022;-39
2023/04/14 10:05:06;;;;;;;;;;;15.60;93.80;;;;;;5048736;28;19940;-39
2023/04/14 10:07:34;;;;;;;;;;;15.70;91.70;;;;;;5049333;28;20042;-39
2023/04/14 10:10:05;;;;;;;;;;;15.70;92.60;;;;;;5045290;28;20022;-39
2023/04/14 10:12:32;;;;;;;;;;;15.80;91.50;;;;;;5042926;28;20366;-38
2023/04/14 10:14:59;;;;;;;;;;;15.90;92.30;;;;;;5046655;28;19947;-38
2023/04/14 10:17:26;;;;;;;;;;;16.00;90.40;;;;;;5044209;28;19962;-39
2023/04/14 10:19:52;;;;;;;;;;;16.10;91.40;;;;;;5044107;28;20405;-38
2023/04/14 10:22:19;;;;;;;;;;;16.10;89.30;;;;;;5045000;28;20367;-39
2023/04/14 10:24:47;;;;;;;;;;;16.10;87.90;;;;;;5041667;28;20042;-39
2023/04/14 10:27:14;;;;;;;;;;;15.90;90.40;;;;;;5056206;28;19984;-39
2023/04/14 10:29:41;;;;;;;;;;;15.80;90.50;;;;;;5039088;28;19946;-40
2023/04/14 10:32:08;;;;;;;;;;;15.80;88.00;;;;;;5040854;28;19942;-39
2023/04/14 10:34:35;;;;;;;;;;;15.80;90.40;;;;;;5049550;28;19969;-39
2023/04/14 10:37:11;;;;;;;;;;;16.00;92.80;;;;;;5047956;28;20036;-40
2023/04/14 10:39:38;;;;;;;;;;;16.20;91.20;;;;;;5042767;28;19934;-38
2023/04/14 10:42:06;;;;;;;;;;;16.30;90.70;;;;;;5030952;28;20014;-38
2023/04/14 10:44:33;;;;;;;;;;;16.40;87.40;;;;;;5057964;28;20043;-39
2023/04/14 10:47:00;;;;;;;;;;;16.60;87.00;;;;;;5041136;28;19937;-39
2023/04/14 10:49:31;;;;;;;;;;;16.70;86.50;;;;;;5046566;28;19943;-39
2023/04/14 10:51:58;;;;;;;;;;;16.80;81.70;;;;;;5058512;28;20365;-38
2023/04/14 10:54:25;;;;;;;;;;;16.80;84.80;;;;;;5065231;28;19946;-38
2023/04/14 10:57:13;;;;;;;;;;;17.00;81.80;;;;;;5064703;28;19935;-38
2023/04/14 10:59:41;;;;;;;;;;;17.10;84.60;;;;;;5061271;28;19938;-39
2023/04/14 11:02:21;;;;;;;;;;;17.20;80.70;;;;;;5055432;28;19953;-38
2023/04/14 11:04:57;;;;;;;;;;;17.20;81.30;;;;;;5048360;28;20511;-39
2023/04/14 11:07:24;;;;;;;;;;;17.30;85.50;;;;;;5047097;28;20676;-39
2023/04/14 11:09:50;;;;;;;;;;;17.60;89.70;;;;;;5067435;28;19975;-41
2023/04/14 11:12:25;;;;;;;;;;;17.70;85.40;;;;;;5075037;28;19993;-39
2023/04/14 11:14:54;;;;;;;;;;;17.90;79.80;;;;;;5059135;28;19971;-39
2023/04/14 11:17:21;;;;;;;;;;;17.90;71.60;;;;;;5051192;28;19960;-38
2023/04/14 11:19:48;;;;;;;;;;;17.80;72.50;;;;;;5039763;28;19938;-39
2023/04/14 11:22:15;;;;;;;;;;;17.90;71.70;;;;;;5056075;28;19933;-38
2023/04/14 11:24:41;;;;;;;;;;;17.90;70.50;;;;;;5064419;28;20146;-38
2023/04/14 11:27:11;;;;;;;;;;;17.80;65.70;;;;;;5047011;28;20014;-38
2023/04/14 11:29:39;;;;;;;;;;;17.70;74.00;;;;;;5050948;28;20047;-39
2023/04/14 11:32:06;;;;;;;;;;;17.80;73.30;;;;;;5045257;28;20016;-38
2023/04/14 11:34:33;;;;;;;;;;;17.50;66.80;;;;;;5051098;28;19981;-38
2023/04/14 11:37:01;;;;;;;;;;;17.30;67.30;;;;;;5052749;28;19934;-39
2023/04/14 11:39:28;;;;;;;;;;;17.30;67.10;;;;;;5054649;28;20026;-39
2023/04/14 11:41:55;;;;;;;;;;;17.50;72.00;;;;;;5047272;28;20250;-38
2023/04/14 11:44:22;;;;;;;;;;;17.70;74.80;;;;;;5043723;28;19955;-39
2023/04/14 11:46:51;;;;;;;;;;;17.80;65.70;;;;;;5048613;28;19940;-39
2023/04/14 11:49:17;;;;;;;;;;;17.90;64.80;;;;;;5043351;28;19967;-39
2023/04/14 11:51:44;;;;;;;;;;;17.80;66.10;;;;;;5045702;28;19976;-39
2023/04/14 11:54:11;;;;;;;;;;;17.80;63.90;;;;;;5049127;28;20018;-39
2023/04/14 11:56:38;;;;;;;;;;;17.80;67.50;;;;;;5051130;28;19936;-38
2023/04/14 11:59:05;;;;;;;;;;;17.90;66.80;;;;;;5049027;28;19939;-39
2023/04/14 12:01:31;;;;;;;;;;;18.00;70.10;;;;;;5051246;28;20039;-38
2023/04/14 12:03:59;;;;;;;;;;;18.10;71.30;;;;;;5046394;28;20002;-38
2023/04/14 12:06:26;;;;;;;;;;;18.30;67.70;;;;;;5055722;28;19937;-38
2023/04/14 12:08:53;;;;;;;;;;;18.30;63.70;;;;;;5045781;28;20335;-38
2023/04/14 12:11:19;;;;;;;;;;;18.30;67.80;;;;;;5053697;28;20414;-39
2023/04/14 12:13:46;;;;;;;;;;;18.30;60.10;;;;;;5054336;28;19981;-38
2023/04/14 12:16:13;;;;;;;;;;;18.20;65.20;;;;;;5048977;28;20387;-37
2023/04/14 12:18:40;;;;;;;;;;;18.20;63.10;;;;;;5059074;28;20045;-37
2023/04/14 12:21:08;;;;;;;;;;;18.40;67.30;;;;;;5057062;28;19935;-38
2023/04/14 12:23:35;;;;;;;;;;;18.70;65.90;;;;;;5050348;28;20038;-39
2023/04/14 12:26:02;;;;;;;;;;;18.70;65.00;;;;;;5040555;28;19934;-41
2023/04/14 12:28:29;;;;;;;;;;;18.60;59.80;;;;;;5042493;28;20355;-37
2023/04/14 12:30:56;;;;;;;;;;;18.50;62.60;;;;;;5039379;28;19965;-39
2023/04/14 12:33:23;;;;;;;;;;;18.50;63.30;;;;;;5044038;28;19939;-38
2023/04/14 12:35:50;;;;;;;;;;;18.40;60.70;;;;;;5065849;28;20411;-38
2023/04/14 12:38:18;;;;;;;;;;;18.10;59.40;;;;;;5048770;28;19975;-39
2023/04/14 12:40:46;;;;;;;;;;;17.90;63.80;;;;;;5043343;28;20362;-39
2023/04/14 12:43:13;;;;;;;;;;;18.10;64.50;;;;;;5041879;28;20025;-38
2023/04/14 12:45:43;;;;;;;;;;;18.20;64.90;;;;;;5052874;28;19961;-38
2023/04/14 12:48:09;;;;;;;;;;;18.50;65.80;;;;;;5048778;28;20427;-40
2023/04/14 12:50:36;;;;;;;;;;;18.60;62.90;;;;;;5047786;28;19991;-38
2023/04/14 12:53:03;;;;;;;;;;;18.70;64.10;;;;;;5052493;28;19983;-38
2023/04/14 12:55:31;;;;;;;;;;;18.80;61.40;;;;;;5051077;28;20408;-38
2023/04/14 12:57:58;;;;;;;;;;;18.90;64.10;;;;;;5057215;28;20020;-40
2023/04/14 13:00:26;;;;;;;;;;;19.00;64.20;;;;;;5055372;28;20277;-37
2023/04/14 13:02:52;;;;;;;;;;;19.20;62.30;;;;;;5057915;28;20032;-37
2023/04/14 13:05:19;;;;;;;;;;;19.30;61.20;;;;;;5046580;28;20032;-37
2023/04/14 13:07:46;;;;;;;;;;;19.50;59.80;;;;;;5059065;28;20135;-38
2023/04/14 13:10:13;;;;;;;;;;;19.60;59.70;;;;;;5039849;28;19933;-37
2023/04/14 13:12:41;;;;;;;;;;;19.80;62.00;;;;;;5052360;28;20001;-41
2023/04/14 13:15:13;;;;;;;;;;;19.80;58.80;;;;;;5048047;28;20385;-38
2023/04/14 13:17:40;;;;;;;;;;;19.80;56.30;;;;;;5053193;28;20293;-38
2023/04/14 13:20:07;;;;;;;;;;;19.70;58.30;;;;;;5044277;28;19987;-38
2023/04/14 13:22:34;;;;;;;;;;;19.60;57.30;;;;;;5055256;28;19992;-41
2023/04/14 13:25:01;;;;;;;;;;;19.60;58.70;;;;;;5049563;28;20057;-37
2023/04/14 13:27:27;;;;;;;;;;;19.40;56.60;;;;;;5065661;28;20067;-38
2023/04/14 13:29:55;;;;;;;;;;;19.30;60.00;;;;;;5049646;28;20018;-39
2023/04/14 13:32:22;;;;;;;;;;;19.10;59.20;;;;;;5047121;28;20034;-38
2023/04/14 13:34:50;;;;;;;;;;;19.10;59.30;;;;;;5052429;28;19966;-36
2023/04/14 13:37:17;;;;;;;;;;;19.20;59.50;;;;;;5053437;28;20044;-38
2023/04/14 13:39:44;;;;;;;;;;;19.20;57.80;;;;;;5048445;28;20386;-38
2023/04/14 13:42:11;;;;;;;;;;;19.20;60.00;;;;;;5047931;28;19987;-38
2023/04/14 13:44:37;;;;;;;;;;;19.30;61.50;;;;;;5047857;28;20031;-37
2023/04/14 13:47:05;;;;;;;;;;;19.40;62.80;;;;;;5035596;28;20008;-38
2023/04/14 13:49:32;;;;;;;;;;;19.60;66.40;;;;;;5050833;28;19937;-38
2023/04/14 13:51:58;;;;;;;;;;;19.70;63.00;;;;;;5041129;28;19970;-38
2023/04/14 13:54:25;;;;;;;;;;;19.70;64.10;;;;;;5046546;28;20040;-38
2023/04/14 13:56:52;;;;;;;;;;;19.70;62.70;;;;;;5049638;28;20019;-40
2023/04/14 13:59:19;;;;;;;;;;;19.90;61.40;;;;;;5039263;28;20022;-40
2023/04/14 14:01:45;;;;;;;;;;;20.00;58.80;;;;;;5049930;28;20019;-39
2023/04/14 14:04:13;;;;;;;;;;;20.00;62.40;;;;;;5050338;28;20028;-38
2023/04/14 14:06:40;;;;;;;;;;;20.20;64.00;;;;;;5051294;28;20145;-39
2023/04/14 14:09:06;;;;;;;;;;;20.40;63.70;;;;;;5047078;28;20388;-38
2023/04/14 14:11:33;;;;;;;;;;;20.40;65.80;;;;;;5046168;28;20022;-39
2023/04/14 14:14:00;;;;;;;;;;;20.50;62.80;;;;;;5044800;28;19948;-38
2023/04/14 14:16:27;;;;;;;;;;;20.60;62.80;;;;;;5051460;28;19994;-39
2023/04/14 14:18:53;;;;;;;;;;;20.60;63.70;;;;;;5042679;28;19952;-39
2023/04/14 14:21:21;;;;;;;;;;;20.60;58.50;;;;;;5031191;28;20491;-38
2023/04/14 14:23:48;;;;;;;;;;;20.60;57.90;;;;;;5037682;28;20019;-39